Time;durP1;ratioP1;P1;durP2;ratioP2;P2;SDS_P1;SDS_P2;PMS_P1;PMS_P2;Temp;Humidity;BMP_temperature;BMP_pressure;BME280_temperature;BME280_humidity;BME280_pressure;Samples;Min_cycle;Max_cycle;Signal;HPM_P1;HPM_P2
2022/04/11 00:00:46;;;;;;;;;;;19.80;52.50;;;;;;5025497;28;19914;-53
2022/04/11 00:03:12;;;;;;;;;;;19.90;52.40;;;;;;5025724;28;20425;-53
2022/04/11 00:05:37;;;;;;;;;;;19.90;52.40;;;;;;5027650;28;19936;-53
2022/04/11 00:08:03;;;;;;;;;;;19.90;52.40;;;;;;5028934;28;19974;-55
2022/04/11 00:10:28;;;;;;;;;;;19.90;52.30;;;;;;5028993;28;20018;-54
2022/04/11 00:13:03;;;;;;;;;;;20.00;52.30;;;;;;5028126;28;19913;-53
2022/04/11 00:15:29;;;;;;;;;;;20.00;52.10;;;;;;5028059;28;19914;-56
2022/04/11 00:17:55;;;;;;;;;;;20.00;52.00;;;;;;5028347;28;19921;-52
2022/04/11 00:20:20;;;;;;;;;;;20.00;51.90;;;;;;5026588;28;20372;-53
2022/04/11 00:22:45;;;;;;;;;;;20.10;51.80;;;;;;5028713;28;19967;-54
2022/04/11 00:25:11;;;;;;;;;;;20.10;51.80;;;;;;5027849;28;19920;-53
2022/04/11 00:27:36;;;;;;;;;;;20.10;51.80;;;;;;5028067;28;20364;-54
2022/04/11 00:30:02;;;;;;;;;;;20.10;51.80;;;;;;5027323;28;19913;-53
2022/04/11 00:32:27;;;;;;;;;;;20.10;51.80;;;;;;5027375;28;20094;-56
2022/04/11 00:34:53;;;;;;;;;;;20.10;51.80;;;;;;5027233;28;19937;-57
2022/04/11 00:37:18;;;;;;;;;;;20.10;51.80;;;;;;5027539;28;19920;-54
2022/04/11 00:39:44;;;;;;;;;;;20.00;51.80;;;;;;5027412;28;20600;-57
2022/04/11 00:42:14;;;;;;;;;;;20.10;51.70;;;;;;5023102;28;19921;-55
2022/04/11 00:44:39;;;;;;;;;;;20.10;51.70;;;;;;5025006;28;19917;-56
2022/04/11 00:47:05;;;;;;;;;;;20.10;51.70;;;;;;5012853;28;19924;-55
2022/04/11 00:49:30;;;;;;;;;;;20.00;51.60;;;;;;5020784;28;20441;-55
2022/04/11 00:51:56;;;;;;;;;;;20.00;51.60;;;;;;5011592;28;20341;-53
2022/04/11 00:54:22;;;;;;;;;;;20.00;51.50;;;;;;5022178;28;19963;-55
2022/04/11 00:56:47;;;;;;;;;;;20.00;51.50;;;;;;5011163;28;19913;-52
2022/04/11 00:59:15;;;;;;;;;;;20.00;51.50;;;;;;5023836;28;20000;-54
2022/04/11 01:01:41;;;;;;;;;;;20.00;51.50;;;;;;5021501;28;19963;-54
2022/04/11 01:04:06;;;;;;;;;;;20.00;51.50;;;;;;5027132;28;20270;-56
2022/04/11 01:06:31;;;;;;;;;;;20.00;51.50;;;;;;5024188;28;19924;-52
2022/04/11 01:08:57;;;;;;;;;;;19.90;51.40;;;;;;5026665;28;20374;-57
2022/04/11 01:11:23;;;;;;;;;;;20.00;51.50;;;;;;5024547;28;19925;-54
2022/04/11 01:13:48;;;;;;;;;;;19.90;51.50;;;;;;5025800;28;20271;-54
2022/04/11 01:16:13;;;;;;;;;;;19.90;51.30;;;;;;5026520;28;19913;-57
2022/04/11 01:18:39;;;;;;;;;;;19.90;51.30;;;;;;5022832;28;19925;-55
2022/04/11 01:21:06;;;;;;;;;;;19.80;51.00;;;;;;5026661;28;19920;-56
2022/04/11 01:23:31;;;;;;;;;;;19.80;50.90;;;;;;5024302;28;19917;-55
2022/04/11 01:25:57;;;;;;;;;;;19.80;51.00;;;;;;5027711;28;20298;-54
2022/04/11 01:28:23;;;;;;;;;;;19.70;50.80;;;;;;5024730;28;19940;-51
2022/04/11 01:30:54;;;;;;;;;;;19.70;51.00;;;;;;4993915;28;19918;-54
2022/04/11 01:33:21;;;;;;;;;;;19.70;51.10;;;;;;5004772;28;19917;-53
2022/04/11 01:35:46;;;;;;;;;;;19.70;50.90;;;;;;5026655;28;19999;-55
2022/04/11 01:38:12;;;;;;;;;;;19.70;50.90;;;;;;5024985;28;20353;-53
2022/04/11 01:40:37;;;;;;;;;;;19.60;50.90;;;;;;5026071;28;19920;-54
2022/04/11 01:43:03;;;;;;;;;;;19.60;50.80;;;;;;5024038;28;19921;-54
2022/04/11 01:45:29;;;;;;;;;;;19.60;50.80;;;;;;5026843;28;19914;-54
2022/04/11 01:47:55;;;;;;;;;;;19.60;50.70;;;;;;5024477;28;19917;-55
2022/04/11 01:50:20;;;;;;;;;;;19.60;50.60;;;;;;5025965;28;19941;-54
2022/04/11 01:52:46;;;;;;;;;;;19.60;50.60;;;;;;5025168;28;19913;-55
2022/04/11 01:55:11;;;;;;;;;;;19.50;50.40;;;;;;5025962;28;19917;-55
2022/04/11 01:57:37;;;;;;;;;;;19.60;50.40;;;;;;5024749;28;19967;-55
2022/04/11 02:00:02;;;;;;;;;;;19.50;50.40;;;;;;5025084;28;19917;-56
2022/04/11 02:02:28;;;;;;;;;;;19.50;50.30;;;;;;5033813;28;19913;-53
2022/04/11 02:04:53;;;;;;;;;;;19.50;50.40;;;;;;5032445;28;19920;-53
2022/04/11 02:07:19;;;;;;;;;;;19.50;50.40;;;;;;5026079;28;19917;-53
2022/04/11 02:09:44;;;;;;;;;;;19.50;50.30;;;;;;5025691;28;19913;-53
2022/04/11 02:12:10;;;;;;;;;;;19.50;50.30;;;;;;5024948;28;19913;-56
2022/04/11 02:14:35;;;;;;;;;;;19.50;50.40;;;;;;5026169;28;19943;-52
2022/04/11 02:17:01;;;;;;;;;;;19.50;50.30;;;;;;5023392;28;19944;-52
2022/04/11 02:19:26;;;;;;;;;;;19.40;50.30;;;;;;5025306;28;20286;-53
2022/04/11 02:21:51;;;;;;;;;;;19.40;50.30;;;;;;5024566;28;19940;-55
2022/04/11 02:24:17;;;;;;;;;;;19.40;50.30;;;;;;5026088;28;19920;-54
2022/04/11 02:26:42;;;;;;;;;;;19.40;50.30;;;;;;5024074;28;19917;-51
2022/04/11 02:29:08;;;;;;;;;;;19.40;50.30;;;;;;5023965;28;20301;-52
2022/04/11 02:31:33;;;;;;;;;;;19.40;50.30;;;;;;5023556;28;19963;-54
2022/04/11 02:33:59;;;;;;;;;;;19.40;50.40;;;;;;5023892;28;19921;-53
2022/04/11 02:36:25;;;;;;;;;;;19.30;50.50;;;;;;5023442;28;19975;-52
2022/04/11 02:38:51;;;;;;;;;;;19.30;50.80;;;;;;5024873;28;20377;-52
2022/04/11 02:41:17;;;;;;;;;;;19.40;50.90;;;;;;5013303;28;19932;-54
2022/04/11 02:43:43;;;;;;;;;;;19.40;51.00;;;;;;5023680;28;20388;-52
2022/04/11 02:46:09;;;;;;;;;;;19.40;51.00;;;;;;5025226;28;19917;-55
2022/04/11 02:48:34;;;;;;;;;;;19.40;51.10;;;;;;5024005;28;19913;-55
2022/04/11 02:50:59;;;;;;;;;;;19.50;51.10;;;;;;5025354;28;20405;-52
2022/04/11 02:53:25;;;;;;;;;;;19.50;51.10;;;;;;5023668;28;19936;-54
2022/04/11 02:55:50;;;;;;;;;;;19.50;51.00;;;;;;5024907;28;19913;-54
2022/04/11 02:58:16;;;;;;;;;;;19.50;51.00;;;;;;5022368;28;19917;-56
2022/04/11 03:00:41;;;;;;;;;;;19.60;50.80;;;;;;5023543;28;20554;-52
2022/04/11 03:03:07;;;;;;;;;;;19.60;50.80;;;;;;5022273;28;19921;-53
2022/04/11 03:05:34;;;;;;;;;;;19.60;50.50;;;;;;5024031;28;19928;-53
2022/04/11 03:08:00;;;;;;;;;;;19.70;50.60;;;;;;5021248;28;19940;-55
2022/04/11 03:10:25;;;;;;;;;;;19.70;50.50;;;;;;5023748;28;20425;-54
2022/04/11 03:12:51;;;;;;;;;;;19.70;50.20;;;;;;5037769;28;19956;-56
2022/04/11 03:15:17;;;;;;;;;;;19.70;50.30;;;;;;5024682;28;19920;-54
2022/04/11 03:17:42;;;;;;;;;;;19.70;50.40;;;;;;5022719;28;20464;-55
2022/04/11 03:20:08;;;;;;;;;;;19.80;50.30;;;;;;5023294;28;19924;-54
2022/04/11 03:22:33;;;;;;;;;;;19.80;50.20;;;;;;5022070;28;19913;-56
2022/04/11 03:24:59;;;;;;;;;;;19.80;50.20;;;;;;5024264;28;19913;-54
2022/04/11 03:27:24;;;;;;;;;;;19.80;50.30;;;;;;5022894;28;20399;-51
2022/04/11 03:29:49;;;;;;;;;;;19.80;50.30;;;;;;5023550;28;19913;-53
2022/04/11 03:32:15;;;;;;;;;;;19.80;50.30;;;;;;5021355;28;19924;-52
2022/04/11 03:34:40;;;;;;;;;;;19.80;50.30;;;;;;5023970;28;20449;-51
2022/04/11 03:37:06;;;;;;;;;;;19.70;50.30;;;;;;5021805;28;19967;-53
2022/04/11 03:39:31;;;;;;;;;;;19.70;50.40;;;;;;5023806;28;19917;-51
2022/04/11 03:41:57;;;;;;;;;;;19.70;50.40;;;;;;5022167;28;20518;-53
2022/04/11 03:44:22;;;;;;;;;;;19.70;50.30;;;;;;5024185;28;19928;-52
2022/04/11 03:46:48;;;;;;;;;;;19.70;50.30;;;;;;5022966;28;19918;-53
2022/04/11 03:49:13;;;;;;;;;;;19.70;50.30;;;;;;5029096;28;19917;-52
2022/04/11 03:51:38;;;;;;;;;;;19.70;50.20;;;;;;5023322;28;19914;-52
2022/04/11 03:54:04;;;;;;;;;;;19.70;50.20;;;;;;5024425;28;19944;-52
2022/04/11 03:56:29;;;;;;;;;;;19.70;50.20;;;;;;5022890;28;20597;-55
2022/04/11 03:58:55;;;;;;;;;;;19.70;50.20;;;;;;5023368;28;19913;-53
2022/04/11 04:01:20;;;;;;;;;;;19.70;50.30;;;;;;5023054;28;19920;-52
2022/04/11 04:03:46;;;;;;;;;;;19.70;50.20;;;;;;5029146;28;19913;-53
2022/04/11 04:06:11;;;;;;;;;;;19.60;50.30;;;;;;5025133;28;20316;-55
2022/04/11 04:08:37;;;;;;;;;;;19.60;50.30;;;;;;5019269;28;19928;-52
2022/04/11 04:11:03;;;;;;;;;;;19.60;50.30;;;;;;5023774;28;19976;-52
2022/04/11 04:13:28;;;;;;;;;;;19.60;50.40;;;;;;5022134;28;19913;-50
2022/04/11 04:15:54;;;;;;;;;;;19.50;50.40;;;;;;5024125;28;20075;-53
2022/04/11 04:18:19;;;;;;;;;;;19.50;50.40;;;;;;5011281;28;19920;-56
2022/04/11 04:20:45;;;;;;;;;;;19.50;50.50;;;;;;5023217;28;20193;-52
2022/04/11 04:23:10;;;;;;;;;;;19.50;50.60;;;;;;5022040;28;19913;-54
2022/04/11 04:25:36;;;;;;;;;;;19.50;50.60;;;;;;5023084;28;20293;-51
2022/04/11 04:28:01;;;;;;;;;;;19.50;51.30;;;;;;5022494;28;19921;-53
2022/04/11 04:30:28;;;;;;;;;;;19.40;50.60;;;;;;5022200;28;19917;-51
2022/04/11 04:32:54;;;;;;;;;;;19.40;50.50;;;;;;5023748;28;19913;-53
2022/04/11 04:35:20;;;;;;;;;;;19.40;50.50;;;;;;5024110;28;20289;-52
2022/04/11 04:37:45;;;;;;;;;;;19.40;50.50;;;;;;5022669;28;19920;-50
2022/04/11 04:40:10;;;;;;;;;;;19.40;50.50;;;;;;5023068;28;20378;-52
2022/04/11 04:42:36;;;;;;;;;;;19.30;50.60;;;;;;5022740;28;19925;-53
2022/04/11 04:45:02;;;;;;;;;;;19.30;50.70;;;;;;5024166;28;19921;-54
2022/04/11 04:47:28;;;;;;;;;;;19.30;50.80;;;;;;5022393;28;20398;-55
2022/04/11 04:49:53;;;;;;;;;;;19.30;50.90;;;;;;5023451;28;19913;-53
2022/04/11 04:52:19;;;;;;;;;;;19.30;50.70;;;;;;5025821;28;20357;-53
2022/04/11 04:54:44;;;;;;;;;;;19.30;50.60;;;;;;5025983;28;20168;-54
2022/04/11 04:57:10;;;;;;;;;;;19.40;50.40;;;;;;5026773;28;19917;-55
2022/04/11 04:59:35;;;;;;;;;;;19.30;50.40;;;;;;5026205;28;19923;-56
2022/04/11 05:02:01;;;;;;;;;;;19.30;50.40;;;;;;5026917;28;20363;-56
2022/04/11 05:04:26;;;;;;;;;;;19.40;50.50;;;;;;5026776;28;19913;-56
2022/04/11 05:06:51;;;;;;;;;;;19.40;50.60;;;;;;5025865;28;20099;-54
2022/04/11 05:09:17;;;;;;;;;;;19.40;50.70;;;;;;5026274;28;19967;-55
2022/04/11 05:11:42;;;;;;;;;;;19.40;50.80;;;;;;5026237;28;20267;-54
2022/04/11 05:14:08;;;;;;;;;;;19.50;51.00;;;;;;5026879;28;19917;-54
2022/04/11 05:16:33;;;;;;;;;;;19.50;51.10;;;;;;5027385;28;19914;-56
2022/04/11 05:18:59;;;;;;;;;;;19.50;51.10;;;;;;5026592;28;19928;-54
2022/04/11 05:21:24;;;;;;;;;;;19.50;51.20;;;;;;5025589;28;19919;-54
2022/04/11 05:23:50;;;;;;;;;;;19.50;51.30;;;;;;5026496;28;19920;-53
2022/04/11 05:26:15;;;;;;;;;;;19.50;51.40;;;;;;5027093;28;19924;-55
2022/04/11 05:28:40;;;;;;;;;;;19.50;51.40;;;;;;5026555;28;19936;-51
2022/04/11 05:31:06;;;;;;;;;;;19.50;51.40;;;;;;5026903;28;19917;-55
2022/04/11 05:33:32;;;;;;;;;;;19.60;51.50;;;;;;5026775;28;19971;-53
2022/04/11 05:35:57;;;;;;;;;;;19.60;51.50;;;;;;5026650;28;20412;-53
2022/04/11 05:38:23;;;;;;;;;;;19.60;51.40;;;;;;5026287;28;19924;-54
2022/04/11 05:40:48;;;;;;;;;;;19.60;51.40;;;;;;5026877;28;20297;-54
2022/04/11 05:43:14;;;;;;;;;;;19.70;51.40;;;;;;5026909;28;19917;-55
2022/04/11 05:45:39;;;;;;;;;;;19.80;51.30;;;;;;5026496;28;19930;-54
2022/04/11 05:48:05;;;;;;;;;;;19.90;51.30;;;;;;5026836;28;20382;-55
2022/04/11 05:50:31;;;;;;;;;;;19.90;51.20;;;;;;5026599;28;19937;-57
2022/04/11 05:52:56;;;;;;;;;;;19.90;51.30;;;;;;5024994;28;19920;-56
2022/04/11 05:55:23;;;;;;;;;;;19.90;51.40;;;;;;5026595;28;20298;-53
2022/04/11 05:57:48;;;;;;;;;;;19.90;51.30;;;;;;5027048;28;19964;-55
2022/04/11 06:00:14;;;;;;;;;;;19.90;51.40;;;;;;5025929;28;19913;-53
2022/04/11 06:02:40;;;;;;;;;;;19.80;51.40;;;;;;5026379;28;19925;-55
2022/04/11 06:05:06;;;;;;;;;;;19.80;51.40;;;;;;5025064;28;19975;-56
2022/04/11 06:07:32;;;;;;;;;;;19.80;51.40;;;;;;5025909;28;19917;-54
2022/04/11 06:09:58;;;;;;;;;;;19.80;51.50;;;;;;5025746;28;19928;-53
2022/04/11 06:12:24;;;;;;;;;;;19.80;51.40;;;;;;5024924;28;19920;-53
2022/04/11 06:14:50;;;;;;;;;;;19.80;51.40;;;;;;5025582;28;20443;-52
2022/04/11 06:17:15;;;;;;;;;;;19.80;51.50;;;;;;5026461;28;19914;-56
2022/04/11 06:19:41;;;;;;;;;;;19.80;51.60;;;;;;5025618;28;19940;-56
2022/04/11 06:22:08;;;;;;;;;;;19.80;51.70;;;;;;5025322;28;20306;-53
2022/04/11 06:24:34;;;;;;;;;;;19.80;51.90;;;;;;5025973;28;19920;-53
2022/04/11 06:27:01;;;;;;;;;;;19.80;52.00;;;;;;5025645;28;19917;-56
2022/04/11 06:29:26;;;;;;;;;;;20.00;51.90;;;;;;5024507;28;19913;-55
2022/04/11 06:31:51;;;;;;;;;;;20.00;51.40;;;;;;5024713;28;19960;-55
2022/04/11 06:34:17;;;;;;;;;;;20.10;51.30;;;;;;5025787;28;19948;-55
2022/04/11 06:36:42;;;;;;;;;;;20.10;51.50;;;;;;5025240;28;19913;-54
2022/04/11 06:39:08;;;;;;;;;;;20.10;51.60;;;;;;5018780;28;19984;-54
2022/04/11 06:41:33;;;;;;;;;;;20.10;51.60;;;;;;5023139;22;19950;-53
2022/04/11 06:43:59;;;;;;;;;;;20.10;51.70;;;;;;5024543;28;20546;-54
2022/04/11 06:46:24;;;;;;;;;;;20.10;51.70;;;;;;5004595;28;19921;-56
2022/04/11 06:48:50;;;;;;;;;;;20.10;51.60;;;;;;5005243;28;19920;-55
2022/04/11 06:51:15;;;;;;;;;;;20.00;51.50;;;;;;5021319;28;19913;-55
2022/04/11 06:53:41;;;;;;;;;;;20.00;52.00;;;;;;5025598;28;19917;-56
2022/04/11 06:56:06;;;;;;;;;;;20.00;51.40;;;;;;5026617;28;19917;-52
2022/04/11 06:58:32;;;;;;;;;;;19.90;51.00;;;;;;5025275;28;19914;-54
2022/04/11 07:00:57;;;;;;;;;;;19.90;50.50;;;;;;5025889;28;19913;-56
2022/04/11 07:03:23;;;;;;;;;;;19.90;50.50;;;;;;5025831;28;19913;-55
2022/04/11 07:05:48;;;;;;;;;;;19.90;50.40;;;;;;5025721;28;19913;-56
2022/04/11 07:08:14;;;;;;;;;;;19.90;50.50;;;;;;5025267;28;19967;-52
2022/04/11 07:10:40;;;;;;;;;;;19.90;50.30;;;;;;5023178;28;19913;-55
2022/04/11 07:13:06;;;;;;;;;;;19.80;50.40;;;;;;5023088;28;20370;-52
2022/04/11 07:15:32;;;;;;;;;;;19.80;50.50;;;;;;5026442;28;19920;-54
2022/04/11 07:17:57;;;;;;;;;;;19.80;50.60;;;;;;5035244;28;19917;-53
2022/04/11 07:20:23;;;;;;;;;;;19.80;50.70;;;;;;5022592;28;19967;-54
2022/04/11 07:22:48;;;;;;;;;;;19.70;50.70;;;;;;5023435;28;19913;-52
2022/04/11 07:25:14;;;;;;;;;;;19.70;50.70;;;;;;5023287;28;19913;-55
2022/04/11 07:27:39;;;;;;;;;;;19.70;50.90;;;;;;5023488;28;20122;-57
2022/04/11 07:30:05;;;;;;;;;;;19.70;51.00;;;;;;5023120;28;19913;-53
2022/04/11 07:32:30;;;;;;;;;;;19.70;51.10;;;;;;5023877;28;19978;-54
2022/04/11 07:34:56;;;;;;;;;;;19.60;51.10;;;;;;5023876;28;19913;-51
2022/04/11 07:37:22;;;;;;;;;;;19.60;51.10;;;;;;5002546;28;19918;-55
2022/04/11 07:39:47;;;;;;;;;;;19.60;51.20;;;;;;5004973;28;19920;-54
2022/04/11 07:42:13;;;;;;;;;;;19.60;51.20;;;;;;5023258;28;19928;-53
2022/04/11 07:44:38;;;;;;;;;;;19.50;51.40;;;;;;5022848;28;19979;-53
2022/04/11 07:47:04;;;;;;;;;;;19.50;51.50;;;;;;5024928;28;20616;-52
2022/04/11 07:49:29;;;;;;;;;;;19.50;51.60;;;;;;5024491;28;19964;-51
2022/04/11 07:51:55;;;;;;;;;;;19.50;51.60;;;;;;5024660;28;19913;-55
2022/04/11 07:54:20;;;;;;;;;;;19.40;52.10;;;;;;5025322;28;19917;-55
2022/04/11 07:56:46;;;;;;;;;;;19.40;51.50;;;;;;5024861;28;20388;-57
2022/04/11 07:59:11;;;;;;;;;;;19.40;51.50;;;;;;5024327;28;19913;-52
2022/04/11 08:01:37;;;;;;;;;;;19.40;51.50;;;;;;5025095;28;20504;-57
2022/04/11 08:04:02;;;;;;;;;;;19.40;51.50;;;;;;5024568;28;19921;-52
2022/04/11 08:06:27;;;;;;;;;;;19.30;51.50;;;;;;5022800;28;19925;-53
2022/04/11 08:08:53;;;;;;;;;;;19.30;51.50;;;;;;5024358;28;19921;-54
2022/04/11 08:11:19;;;;;;;;;;;19.30;51.50;;;;;;5025274;28;20629;-57
2022/04/11 08:13:44;;;;;;;;;;;19.30;51.80;;;;;;5024897;28;19917;-53
2022/04/11 08:16:10;;;;;;;;;;;19.30;52.00;;;;;;5025230;28;19913;-52
2022/04/11 08:18:35;;;;;;;;;;;19.30;52.00;;;;;;5024907;28;20573;-57
2022/04/11 08:21:01;;;;;;;;;;;19.30;52.10;;;;;;5024123;28;19913;-56
2022/04/11 08:23:26;;;;;;;;;;;19.40;52.10;;;;;;5024901;28;20563;-54
2022/04/11 08:25:52;;;;;;;;;;;19.40;52.00;;;;;;5026205;28;20302;-52
2022/04/11 08:28:20;;;;;;;;;;;19.50;51.80;;;;;;5028939;28;20413;-55
2022/04/11 08:30:45;;;;;;;;;;;19.50;51.70;;;;;;5028553;28;20389;-56
2022/04/11 08:33:11;;;;;;;;;;;19.60;51.50;;;;;;5028864;28;20007;-56
2022/04/11 08:35:37;;;;;;;;;;;19.60;51.50;;;;;;5027361;28;19923;-55
2022/04/11 08:38:02;;;;;;;;;;;19.60;51.40;;;;;;5027963;28;20517;-56
2022/04/11 08:40:27;;;;;;;;;;;19.70;51.30;;;;;;5026510;28;19923;-54
2022/04/11 08:42:53;;;;;;;;;;;19.70;51.10;;;;;;5027357;28;19925;-54
2022/04/11 08:45:19;;;;;;;;;;;19.70;51.20;;;;;;5029261;28;20271;-54
2022/04/11 08:47:44;;;;;;;;;;;19.80;51.80;;;;;;5027768;28;20041;-57
2022/04/11 08:50:10;;;;;;;;;;;19.80;51.10;;;;;;5028467;28;19921;-54
2022/04/11 08:52:36;;;;;;;;;;;19.80;51.10;;;;;;5028888;28;19913;-55
2022/04/11 08:55:01;;;;;;;;;;;19.90;51.10;;;;;;5030304;28;19914;-57
2022/04/11 08:57:27;;;;;;;;;;;19.90;51.00;;;;;;5027214;28;20000;-57
2022/04/11 08:59:52;;;;;;;;;;;19.90;50.90;;;;;;5028448;28;19913;-56
2022/04/11 09:02:18;;;;;;;;;;;19.90;50.90;;;;;;5027010;28;19917;-57
2022/04/11 09:04:50;;;;;;;;;;;19.90;50.90;;;;;;5024837;28;19913;-56
2022/04/11 09:07:15;;;;;;;;;;;19.90;50.80;;;;;;5025079;28;19917;-54
2022/04/11 09:09:41;;;;;;;;;;;19.90;50.90;;;;;;5026010;28;19944;-54
2022/04/11 09:12:17;;;;;;;;;;;20.00;50.90;;;;;;5026558;28;19967;-57
2022/04/11 09:14:43;;;;;;;;;;;19.90;51.00;;;;;;5025164;28;19914;-56
2022/04/11 09:17:11;;;;;;;;;;;20.00;51.00;;;;;;5023658;28;20194;-56
2022/04/11 09:19:38;;;;;;;;;;;20.00;51.10;;;;;;5025372;28;19957;-53
2022/04/11 09:22:04;;;;;;;;;;;19.90;51.00;;;;;;5025763;28;19968;-56
2022/04/11 09:24:31;;;;;;;;;;;19.90;51.10;;;;;;5028823;28;20374;-56
2022/04/11 09:26:57;;;;;;;;;;;19.90;51.20;;;;;;5028101;28;20378;-55
2022/04/11 09:29:23;;;;;;;;;;;19.90;51.90;;;;;;5027359;28;19913;-55
2022/04/11 09:31:48;;;;;;;;;;;19.90;51.30;;;;;;5028417;28;20306;-52
2022/04/11 09:34:15;;;;;;;;;;;19.80;51.30;;;;;;5028009;28;19924;-55
2022/04/11 09:36:47;;;;;;;;;;;19.80;51.30;;;;;;5027806;28;20444;-55
2022/04/11 09:39:12;;;;;;;;;;;19.80;51.40;;;;;;5025466;28;19920;-56
2022/04/11 09:41:45;;;;;;;;;;;19.80;51.50;;;;;;5027839;28;19921;-54
2022/04/11 09:44:20;;;;;;;;;;;19.80;51.50;;;;;;5028654;28;19924;-55
2022/04/11 09:46:46;;;;;;;;;;;19.80;51.60;;;;;;5027149;28;19924;-57
2022/04/11 09:49:12;;;;;;;;;;;19.70;51.60;;;;;;5026775;28;19921;-56
2022/04/11 09:51:37;;;;;;;;;;;19.70;51.60;;;;;;5027898;28;19923;-57
2022/04/11 09:54:23;;;;;;;;;;;19.70;51.60;;;;;;5027050;28;19913;-56
2022/04/11 09:56:48;;;;;;;;;;;19.70;51.70;;;;;;5027723;28;19917;-54
2022/04/11 09:59:14;;;;;;;;;;;19.70;51.80;;;;;;5027580;28;19920;-57
2022/04/11 10:01:39;;;;;;;;;;;19.70;51.80;;;;;;5025795;28;19967;-57
2022/04/11 10:04:05;;;;;;;;;;;19.70;51.90;;;;;;5025929;28;20382;-57
2022/04/11 10:06:30;;;;;;;;;;;19.60;51.80;;;;;;5027698;28;19917;-55
2022/04/11 10:08:56;;;;;;;;;;;19.60;51.80;;;;;;5027320;28;20422;-54
2022/04/11 10:11:21;;;;;;;;;;;19.60;51.80;;;;;;5027475;28;19920;-53
2022/04/11 10:13:47;;;;;;;;;;;19.60;51.80;;;;;;5027073;28;19920;-51
2022/04/11 10:16:12;;;;;;;;;;;19.60;51.80;;;;;;5028012;28;20371;-57
2022/04/11 10:18:38;;;;;;;;;;;19.60;51.70;;;;;;5026406;28;19913;-50
2022/04/11 10:21:05;;;;;;;;;;;19.60;51.70;;;;;;5027009;28;19921;-54
2022/04/11 10:23:31;;;;;;;;;;;19.70;51.80;;;;;;5026709;28;19963;-54
2022/04/11 10:26:00;;;;;;;;;;;19.70;51.80;;;;;;5027658;28;19917;-55
2022/04/11 10:28:26;;;;;;;;;;;19.70;52.00;;;;;;5027663;28;19982;-53
2022/04/11 10:31:09;;;;;;;;;;;19.70;52.00;;;;;;5028431;28;19999;-53
2022/04/11 10:33:47;;;;;;;;;;;19.70;52.00;;;;;;5028051;28;19928;-55
2022/04/11 10:36:32;;;;;;;;;;;19.70;52.10;;;;;;5026789;28;20283;-55
2022/04/11 10:39:16;;;;;;;;;;;19.70;52.10;;;;;;5024743;28;20375;-53
2022/04/11 10:41:54;;;;;;;;;;;19.70;52.20;;;;;;5026448;28;19921;-53
2022/04/11 10:44:32;;;;;;;;;;;19.70;52.30;;;;;;5010539;28;20376;-55
2022/04/11 10:47:10;;;;;;;;;;;19.70;52.30;;;;;;5011970;28;19975;-50
2022/04/11 10:49:44;;;;;;;;;;;19.70;52.20;;;;;;5029999;28;19917;-51
2022/04/11 10:52:29;;;;;;;;;;;19.70;52.30;;;;;;5026248;28;19920;-52
2022/04/11 10:54:54;;;;;;;;;;;19.70;52.30;;;;;;5026423;28;19917;-52
2022/04/11 10:57:39;;;;;;;;;;;19.70;52.40;;;;;;5026193;28;20304;-53
2022/04/11 11:00:05;;;;;;;;;;;19.70;52.30;;;;;;5024189;28;19914;-53
2022/04/11 11:03:01;;;;;;;;;;;19.70;52.20;;;;;;5024577;28;19920;-56
2022/04/11 11:05:27;;;;;;;;;;;19.60;52.30;;;;;;5024284;28;19913;-56
2022/04/11 11:08:14;;;;;;;;;;;19.70;52.30;;;;;;5039347;28;19925;-50
2022/04/11 11:10:44;;;;;;;;;;;19.60;52.40;;;;;;5023048;28;20390;-54
2022/04/11 11:13:30;;;;;;;;;;;19.70;52.40;;;;;;5024787;28;19913;-50
2022/04/11 11:15:58;;;;;;;;;;;19.70;52.20;;;;;;5024043;28;19948;-54
2022/04/11 11:18:24;;;;;;;;;;;19.70;52.30;;;;;;5039044;28;19921;-52
2022/04/11 11:20:54;;;;;;;;;;;19.70;52.30;;;;;;5024496;28;19913;-56
2022/04/11 11:23:20;;;;;;;;;;;19.60;52.20;;;;;;5024033;28;20374;-53
2022/04/11 11:25:46;;;;;;;;;;;19.60;52.10;;;;;;5024918;28;19913;-52
2022/04/11 11:28:12;;;;;;;;;;;19.60;52.10;;;;;;5025366;28;19917;-54
2022/04/11 11:30:38;;;;;;;;;;;19.60;51.90;;;;;;5024150;28;20064;-55
2022/04/11 11:33:03;;;;;;;;;;;19.60;52.10;;;;;;5025126;28;20454;-52
2022/04/11 11:35:28;;;;;;;;;;;19.60;51.90;;;;;;5025102;28;19921;-52
2022/04/11 11:38:03;;;;;;;;;;;19.60;51.90;;;;;;5026017;28;19913;-54
2022/04/11 11:40:29;;;;;;;;;;;19.50;51.60;;;;;;5039804;28;19959;-54
2022/04/11 11:42:56;;;;;;;;;;;19.60;51.60;;;;;;5025100;28;19956;-51
2022/04/11 11:45:25;;;;;;;;;;;19.50;51.50;;;;;;5039181;28;20344;-54
2022/04/11 11:47:52;;;;;;;;;;;19.60;51.60;;;;;;5021639;28;19968;-54
2022/04/11 11:50:18;;;;;;;;;;;19.50;51.60;;;;;;5024395;28;19920;-53
2022/04/11 11:52:45;;;;;;;;;;;19.60;52.20;;;;;;5024318;28;19917;-55
2022/04/11 11:55:10;;;;;;;;;;;19.60;51.50;;;;;;5035423;28;19914;-52
2022/04/11 11:57:36;;;;;;;;;;;19.60;51.60;;;;;;5024625;28;19925;-52
2022/04/11 12:00:08;;;;;;;;;;;19.60;51.60;;;;;;5023863;28;19921;-52
2022/04/11 12:05:18;;;;;;;;;;;19.50;51.90;;;;;;5028770;28;20296;-54
2022/04/11 12:07:44;;;;;;;;;;;19.50;52.00;;;;;;5028189;28;19921;-53
2022/04/11 12:10:10;;;;;;;;;;;19.50;52.10;;;;;;5026623;28;19920;-55
2022/04/11 12:12:36;;;;;;;;;;;19.60;52.10;;;;;;5043672;28;19921;-51
2022/04/11 12:15:01;;;;;;;;;;;19.60;52.10;;;;;;5044028;28;19914;-54
2022/04/11 12:17:30;;;;;;;;;;;19.60;52.10;;;;;;5028644;28;19913;-50
2022/04/11 12:20:04;;;;;;;;;;;19.60;52.00;;;;;;5043240;28;19924;-54
2022/04/11 12:22:29;;;;;;;;;;;19.70;52.00;;;;;;5032812;28;19913;-54
2022/04/11 12:24:55;;;;;;;;;;;19.70;51.90;;;;;;5028621;28;19919;-54
2022/04/11 12:27:20;;;;;;;;;;;19.70;51.90;;;;;;5028976;28;19978;-51
2022/04/11 12:29:46;;;;;;;;;;;19.70;51.80;;;;;;5027707;28;19914;-55
2022/04/11 12:32:12;;;;;;;;;;;19.70;51.80;;;;;;5028190;28;19929;-51
2022/04/11 12:34:38;;;;;;;;;;;19.80;51.80;;;;;;5027795;28;19994;-54
2022/04/11 12:37:05;;;;;;;;;;;19.80;51.80;;;;;;5026987;28;19924;-53
2022/04/11 12:39:31;;;;;;;;;;;19.80;51.70;;;;;;5027665;28;19915;-51
2022/04/11 12:41:57;;;;;;;;;;;19.90;51.60;;;;;;5027778;28;20406;-52
2022/04/11 12:44:31;;;;;;;;;;;19.90;51.60;;;;;;5028204;28;19920;-53
2022/04/11 12:46:56;;;;;;;;;;;19.90;51.50;;;;;;5027341;28;20451;-52
2022/04/11 12:49:22;;;;;;;;;;;19.90;51.50;;;;;;5027986;28;19956;-53
2022/04/11 12:51:57;;;;;;;;;;;19.90;51.50;;;;;;5026944;28;19920;-54
2022/04/11 12:54:23;;;;;;;;;;;19.90;52.10;;;;;;5026895;28;20425;-52
2022/04/11 12:56:49;;;;;;;;;;;19.90;51.50;;;;;;5027167;28;19920;-53
2022/04/11 12:59:31;;;;;;;;;;;20.00;51.50;;;;;;5025945;28;19917;-53
2022/04/11 13:02:06;;;;;;;;;;;20.00;51.50;;;;;;5026615;28;19913;-55
2022/04/11 13:04:32;;;;;;;;;;;19.90;51.40;;;;;;5025821;28;19917;-54
2022/04/11 13:06:58;;;;;;;;;;;20.00;51.50;;;;;;5026282;28;19924;-51
2022/04/11 13:09:23;;;;;;;;;;;20.00;51.50;;;;;;5026271;28;19921;-49
2022/04/11 13:11:49;;;;;;;;;;;20.00;51.50;;;;;;5025936;28;19920;-54
2022/04/11 13:14:15;;;;;;;;;;;19.90;51.40;;;;;;5025543;28;19914;-53
2022/04/11 13:19:24;;;;;;;;;;;20.00;51.50;;;;;;5023748;28;19924;-53
2022/04/11 13:21:50;;;;;;;;;;;20.00;51.50;;;;;;5026530;28;19914;-53
2022/04/11 13:24:15;;;;;;;;;;;20.00;51.50;;;;;;5026106;28;19913;-55
2022/04/11 13:26:41;;;;;;;;;;;19.90;51.50;;;;;;5025918;28;19917;-55
2022/04/11 13:29:06;;;;;;;;;;;20.00;51.50;;;;;;5026319;28;19918;-55
2022/04/11 13:31:32;;;;;;;;;;;20.00;51.60;;;;;;5027019;28;20573;-54
2022/04/11 13:33:57;;;;;;;;;;;20.00;51.60;;;;;;5027172;28;20378;-56
2022/04/11 13:36:22;;;;;;;;;;;20.00;51.60;;;;;;5026780;28;19913;-52
2022/04/11 13:38:48;;;;;;;;;;;20.00;51.60;;;;;;5026623;28;19917;-52
2022/04/11 13:41:13;;;;;;;;;;;20.00;51.60;;;;;;5026712;28;19929;-51
2022/04/11 13:43:39;;;;;;;;;;;20.00;51.60;;;;;;5026748;28;19917;-52
2022/04/11 13:46:05;;;;;;;;;;;20.00;51.60;;;;;;5028039;28;19952;-52
2022/04/11 13:48:30;;;;;;;;;;;20.00;51.70;;;;;;5028806;28;20333;-56
2022/04/11 13:50:56;;;;;;;;;;;20.00;51.60;;;;;;5028701;28;19939;-54
2022/04/11 13:53:21;;;;;;;;;;;20.00;51.70;;;;;;5028120;28;19913;-56
2022/04/11 13:55:46;;;;;;;;;;;20.00;51.80;;;;;;5028074;28;19913;-54
2022/04/11 13:58:12;;;;;;;;;;;19.90;51.70;;;;;;5028119;28;19928;-52
2022/04/11 14:00:41;;;;;;;;;;;20.00;51.80;;;;;;5027725;28;19918;-52
2022/04/11 14:03:10;;;;;;;;;;;20.00;51.80;;;;;;5028547;28;20009;-56
2022/04/11 14:05:35;;;;;;;;;;;20.00;51.90;;;;;;5027807;28;19956;-54
2022/04/11 14:08:01;;;;;;;;;;;20.00;51.90;;;;;;5027043;28;19960;-53
2022/04/11 14:10:26;;;;;;;;;;;20.00;52.00;;;;;;5042217;28;19913;-55
2022/04/11 14:12:51;;;;;;;;;;;20.00;51.90;;;;;;5028783;28;19924;-55
2022/04/11 14:15:17;;;;;;;;;;;20.00;51.90;;;;;;5026674;28;20389;-56
2022/04/11 14:17:43;;;;;;;;;;;20.00;51.80;;;;;;5027761;28;19913;-55